Time;durP1;ratioP1;P1;durP2;ratioP2;P2;SDS_P1;SDS_P2;PMS_P1;PMS_P2;Temp;Humidity;BMP_temperature;BMP_pressure;BME280_temperature;BME280_humidity;BME280_pressure;Samples;Min_cycle;Max_cycle;Signal;HPM_P1;HPM_P2
2023/07/26 00:05:05;;;;;;;;;;;;;;;-145.06;100.00;60892.56;4713639;29;19955;-92
2023/07/26 00:08:13;;;;;;;;;;;;;;;-145.06;100.00;60892.56;4727558;29;19915;-94
2023/07/26 00:14:34;;;;;;;;;;;;;;;-145.06;100.00;60892.56;4735028;29;19954;-93
2023/07/26 00:17:32;;;;;;;;;;;;;;;-145.06;100.00;60892.56;4721249;29;19951;-91
2023/07/26 00:24:01;;;;;;;;;;;;;;;-145.06;100.00;60892.56;4740305;29;20002;-93
2023/07/26 00:30:27;;;;;;;;;;;;;;;-145.06;100.00;60892.56;4722505;29;19923;-93
2023/07/26 00:33:11;;;;;;;;;;;;;;;-145.06;100.00;60892.56;4698242;29;19920;-94
2023/07/26 00:46:42;;;;;;;;;;;;;;;;;;;;;
2023/07/26 00:49:23;;;;;;;;;;;;;;;;;;;;;
2023/07/26 00:52:05;;;;;;;;;;;;;;;-145.06;100.00;60892.56;4701827;29;19912;-94
2023/07/26 00:55:02;;;;;;;;;;;;;;;;;;;;;
2023/07/26 00:57:56;;;;;;;;;;;;;;;-145.06;100.00;60892.56;4757154;29;19915;-94
2023/07/26 01:00:42;;;;;;;;;;;;;;;-145.06;100.00;60892.56;4719928;29;19915;-94
2023/07/26 01:03:39;;;;;;;;;;;;;;;-145.06;100.00;60892.56;4689349;29;19928;-94
2023/07/26 01:10:04;;;;;;;;;;;;;;;-145.06;100.00;60892.56;4748927;29;19915;-93
2023/07/26 01:13:05;;;;;;;;;;;;;;;-145.06;100.00;60892.56;4738794;29;19915;-94
2023/07/26 01:19:43;;;;;;;;;;;;;;;-145.06;100.00;60892.56;4716401;29;19920;-93
2023/07/26 01:22:35;;;;;;;;;;;;;;;-145.06;100.00;60892.56;4704823;29;19916;-93
2023/07/26 01:25:37;;;;;;;;;;;;;;;-145.06;100.00;60892.56;4713797;29;19946;-94
2023/07/26 01:28:18;;;;;;;;;;;;;;;-145.06;100.00;60892.56;4718189;29;20322;-93
2023/07/26 01:34:51;;;;;;;;;;;;;;;-145.06;100.00;60892.56;4682766;29;19917;-93
2023/07/26 01:37:32;;;;;;;;;;;;;;;-145.06;100.00;60892.56;4682632;29;19956;-92
2023/07/26 01:40:25;;;;;;;;;;;;;;;-145.06;100.00;60892.56;4733332;29;19950;-94
2023/07/26 01:43:09;;;;;;;;;;;;;;;-145.06;100.00;60892.56;4740529;29;19915;-92
2023/07/26 01:46:17;;;;;;;;;;;;;;;-145.06;100.00;60892.56;4741253;29;19955;-94
2023/07/26 01:49:06;;;;;;;;;;;;;;;-145.06;100.00;60892.56;4729925;29;19915;-93
2023/07/26 01:52:22;;;;;;;;;;;;;;;-145.06;100.00;60892.56;4740988;29;19915;-92
2023/07/26 01:58:55;;;;;;;;;;;;;;;;;;;;;
2023/07/26 02:01:33;;;;;;;;;;;;;;;-145.06;100.00;60892.56;4739697;29;19919;-93
2023/07/26 02:04:18;;;;;;;;;;;;;;;-145.06;100.00;60892.56;4703747;29;19916;-93
2023/07/26 02:07:05;;;;;;;;;;;;;;;-145.06;100.00;60892.56;4734368;29;20263;-94
2023/07/26 02:10:05;;;;;;;;;;;;;;;-145.06;100.00;60892.56;4704677;29;20581;-92
2023/07/26 02:13:02;;;;;;;;;;;;;;;-145.06;100.00;60892.56;4739485;29;19915;-93
2023/07/26 02:15:47;;;;;;;;;;;;;;;-145.06;100.00;60892.56;4716248;29;19915;-92
2023/07/26 02:18:31;;;;;;;;;;;;;;;-145.06;100.00;60892.56;4731420;29;19915;-92
2023/07/26 02:21:47;;;;;;;;;;;;;;;;;;;;;
2023/07/26 02:27:46;;;;;;;;;;;;;;;-145.06;100.00;60892.56;4707111;29;19928;-94
2023/07/26 02:30:36;;;;;;;;;;;;;;;-145.06;100.00;60892.56;4721883;29;19958;-94
2023/07/26 02:33:35;;;;;;;;;;;;;;;-145.06;100.00;60892.56;4726508;29;19915;-93
2023/07/26 02:39:36;;;;;;;;;;;;;;;-145.06;100.00;60892.56;4735509;29;19915;-93
2023/07/26 02:42:26;;;;;;;;;;;;;;;-145.06;100.00;60892.56;4740162;29;19916;-92
2023/07/26 02:45:30;;;;;;;;;;;;;;;-145.06;100.00;60892.56;4725367;29;19986;-92
2023/07/26 02:48:09;;;;;;;;;;;;;;;-145.06;100.00;60892.56;4724562;29;19946;-92
2023/07/26 02:50:53;;;;;;;;;;;;;;;-145.06;100.00;60892.56;4721613;29;19928;-92
2023/07/26 02:53:38;;;;;;;;;;;;;;;-145.06;100.00;60892.56;4715986;29;19920;-93
2023/07/26 02:56:29;;;;;;;;;;;;;;;-145.06;100.00;60892.56;4703976;29;20275;-93
2023/07/26 02:59:17;;;;;;;;;;;;;;;-145.06;100.00;60892.56;4720867;29;19927;-92
2023/07/26 03:02:01;;;;;;;;;;;;;;;-145.06;100.00;60892.56;4735836;29;19920;-91
2023/07/26 03:04:44;;;;;;;;;;;;;;;-145.06;100.00;60892.56;4724370;29;19975;-93
2023/07/26 03:07:43;;;;;;;;;;;;;;;-145.06;100.00;60892.56;4721715;29;19920;-93
2023/07/26 03:10:25;;;;;;;;;;;;;;;-145.06;100.00;60892.56;4739425;29;19919;-92
2023/07/26 03:13:40;;;;;;;;;;;;;;;;;;;;;
2023/07/26 03:16:22;;;;;;;;;;;;;;;-145.06;100.00;60892.56;4710153;29;20010;-92
2023/07/26 03:22:51;;;;;;;;;;;;;;;-145.06;100.00;60892.56;4752087;29;19915;-93
2023/07/26 03:25:41;;;;;;;;;;;;;;;-145.06;100.00;60892.56;4693634;29;19920;-93
2023/07/26 03:28:45;;;;;;;;;;;;;;;14.57;100.00;60892.56;4710150;29;20006;-93
2023/07/26 03:39:11;;;;;;;;;;;;;;;;;;;;;
2023/07/26 03:42:30;;;;;;;;;;;;;;;;;;;;;
2023/07/26 03:48:35;;;;;;;;;;;;;;;14.48;100.00;60892.56;4614641;30;19922;-93
2023/07/26 03:51:25;;;;;;;;;;;;;;;14.46;100.00;60892.56;4616121;29;19917;-92
2023/07/26 03:54:35;;;;;;;;;;;;;;;14.46;100.00;60892.56;4705046;29;19916;-94
2023/07/26 03:57:30;;;;;;;;;;;;;;;;;;;;;
2023/07/26 04:00:25;;;;;;;;;;;;;;;14.46;100.00;60892.56;4739461;29;20302;-91
2023/07/26 04:03:27;;;;;;;;;;;;;;;14.46;100.00;60892.56;4730225;29;19922;-92
2023/07/26 04:10:04;;;;;;;;;;;;;;;;;;;;;
2023/07/26 04:13:06;;;;;;;;;;;;;;;14.46;100.00;60892.56;4753874;29;19915;-93
2023/07/26 04:16:31;;;;;;;;;;;;;;;14.42;100.00;60892.56;4703413;29;19915;-92
2023/07/26 04:19:39;;;;;;;;;;;;;;;14.41;100.00;60892.56;4731708;29;19916;-93
2023/07/26 04:34:34;;;;;;;;;;;;;;;;;;;;;
2023/07/26 04:47:17;;;;;;;;;;;;;;;14.38;100.00;60892.56;4710167;29;20130;-93
2023/07/26 04:50:11;;;;;;;;;;;;;;;14.38;100.00;60892.56;4733335;29;19919;-92
2023/07/26 04:57:12;;;;;;;;;;;;;;;14.35;100.00;60892.56;4640775;29;19925;-93
2023/07/26 06:15:11;;;;;;;;;;;;;;;-145.06;100.00;60892.56;4734599;29;19935;-92
2023/07/26 06:18:22;;;;;;;;;;;;;;;-145.06;100.00;60892.56;4723910;29;20362;-93
2023/07/26 06:21:38;;;;;;;;;;;;;;;;;;;;;
2023/07/26 06:24:56;;;;;;;;;;;;;;;-145.06;100.00;60892.56;4739885;29;19958;-92
2023/07/26 06:27:47;;;;;;;;;;;;;;;;;;;;;
2023/07/26 06:30:47;;;;;;;;;;;;;;;-145.06;100.00;60892.56;4733339;29;19915;-92
2023/07/26 06:34:07;;;;;;;;;;;;;;;-145.06;100.00;60892.56;4729756;29;19915;-93
2023/07/26 06:37:14;;;;;;;;;;;;;;;-145.06;100.00;60892.56;4720623;29;19955;-92
2023/07/26 06:40:15;;;;;;;;;;;;;;;187.52;100.00;60892.56;4737751;29;19916;-92
2023/07/26 06:47:07;;;;;;;;;;;;;;;;;;;;;
2023/07/26 06:55:34;;;;;;;;;;;;;;;;;;;;;
2023/07/26 15:36:56;;;;;;;;;;;;;;;-145.06;100.00;60892.56;4742561;29;19919;-95
2023/07/26 15:39:35;;;;;;;;;;;;;;;-145.06;100.00;60892.56;4713675;29;19923;-91
2023/07/26 15:42:14;;;;;;;;;;;;;;;-145.06;100.00;60892.56;4719429;29;19915;-90
2023/07/26 15:44:56;;;;;;;;;;;;;;;-145.06;100.00;60892.56;4723662;29;19919;-91
2023/07/26 15:47:45;;;;;;;;;;;;;;;-145.06;100.00;60892.56;4720853;29;19963;-93
2023/07/26 15:50:24;;;;;;;;;;;;;;;-145.06;100.00;60892.56;4716208;29;19991;-91
2023/07/26 15:53:16;;;;;;;;;;;;;;;;;;;;;
2023/07/26 15:56:05;;;;;;;;;;;;;;;-145.06;100.00;60892.56;4737396;29;19958;-91
2023/07/26 16:01:49;;;;;;;;;;;;;;;-145.06;100.00;60892.56;4736598;29;20172;-92
2023/07/26 16:04:40;;;;;;;;;;;;;;;-145.06;100.00;60892.56;4726705;29;19920;-95
2023/07/26 16:07:48;;;;;;;;;;;;;;;-145.06;100.00;60892.56;4721792;29;19923;-94
2023/07/26 16:10:34;;;;;;;;;;;;;;;-145.06;100.00;60892.56;4720639;29;19924;-94
2023/07/26 16:13:13;;;;;;;;;;;;;;;-145.06;100.00;60892.56;4730763;29;19954;-94
2023/07/26 16:16:17;;;;;;;;;;;;;;;-145.06;100.00;60892.56;4723627;29;19919;-93
2023/07/26 16:18:59;;;;;;;;;;;;;;;-145.06;100.00;60892.56;4737689;29;19955;-93
2023/07/26 16:21:38;;;;;;;;;;;;;;;-145.06;100.00;60892.56;4718893;29;19923;-93
2023/07/26 16:24:17;;;;;;;;;;;;;;;-145.06;100.00;60892.56;4722603;29;20548;-94
2023/07/26 16:27:06;;;;;;;;;;;;;;;-145.06;100.00;60892.56;4749448;29;19920;-93
2023/07/26 16:29:45;;;;;;;;;;;;;;;-145.06;100.00;60892.56;4716561;29;19923;-93
2023/07/26 16:32:32;;;;;;;;;;;;;;;-145.06;100.00;60892.56;4723623;29;19920;-93
2023/07/26 16:35:21;;;;;;;;;;;;;;;-145.06;100.00;60892.56;4720837;29;19919;-92
2023/07/26 16:44:56;;;;;;;;;;;;;;;-145.06;100.00;60892.56;4742229;29;19919;-94
2023/07/26 16:47:41;;;;;;;;;;;;;;;-145.06;100.00;60892.56;4710966;29;20398;-92
2023/07/26 16:50:20;;;;;;;;;;;;;;;-145.06;100.00;60892.56;4718780;29;19931;-92
2023/07/26 16:53:17;;;;;;;;;;;;;;;-145.06;100.00;60892.56;4725329;29;19915;-92
2023/07/26 16:56:24;;;;;;;;;;;;;;;;;;;;;
2023/07/26 17:19:22;;;;;;;;;;;;;;;-145.06;100.00;60892.56;5672254;23;19922;-90
2023/07/26 17:22:52;;;;;;;;;;;;;;;;;;;;;
2023/07/26 17:25:52;;;;;;;;;;;;;;;-145.06;100.00;60892.56;4682737;29;19917;-95
2023/07/26 17:28:56;;;;;;;;;;;;;;;-145.06;100.00;60892.56;4688752;29;20410;-94
2023/07/26 17:31:40;;;;;;;;;;;;;;;-145.06;100.00;60892.56;5688535;23;20818;-93
2023/07/26 17:34:19;;;;;;;;;;;;;;;-145.06;100.00;60892.56;4717853;29;19923;-90
2023/07/26 17:36:58;;;;;;;;;;;;;;;-145.06;100.00;60892.56;4716556;29;19915;-92
2023/07/26 17:39:55;;;;;;;;;;;;;;;-145.06;100.00;60892.56;4715690;29;20355;-91
2023/07/26 17:42:37;;;;;;;;;;;;;;;-145.06;100.00;60892.56;4694182;29;19959;-91
2023/07/26 17:45:21;;;;;;;;;;;;;;;-145.06;100.00;60892.56;4707145;29;19920;-93
2023/07/26 17:48:00;;;;;;;;;;;;;;;-145.06;100.00;60892.56;4713665;29;19959;-93
2023/07/26 17:50:41;;;;;;;;;;;;;;;-145.06;100.00;60892.56;4714510;29;19967;-93
2023/07/26 17:53:36;;;;;;;;;;;;;;;-145.06;100.00;60892.56;4710717;29;19916;-93
2023/07/26 17:56:18;;;;;;;;;;;;;;;-145.06;100.00;60892.56;4706195;29;19920;-93
2023/07/26 17:58:57;;;;;;;;;;;;;;;-145.06;100.00;60892.56;4698034;29;19916;-91
2023/07/26 18:01:38;;;;;;;;;;;;;;;-145.06;100.00;60892.56;4710889;29;19975;-92
2023/07/26 18:04:17;;;;;;;;;;;;;;;-145.06;100.00;60892.56;4719088;29;19919;-92
2023/07/26 18:06:59;;;;;;;;;;;;;;;-145.06;100.00;60892.56;4724695;29;19920;-92
2023/07/26 18:09:38;;;;;;;;;;;;;;;-145.06;100.00;60892.56;4743172;29;19919;-92
2023/07/26 18:13:02;;;;;;;;;;;;;;;-145.06;100.00;60892.56;4722178;29;19919;-92
2023/07/26 18:16:26;;;;;;;;;;;;;;;;;;;;;
2023/07/26 18:19:14;;;;;;;;;;;;;;;-145.06;100.00;60892.56;4718946;29;19916;-92
2023/07/26 18:21:53;;;;;;;;;;;;;;;-145.06;100.00;60892.56;4744477;29;19915;-93
2023/07/26 18:24:40;;;;;;;;;;;;;;;-145.06;100.00;60892.56;4756301;29;20010;-92
2023/07/26 18:27:29;;;;;;;;;;;;;;;-145.06;100.00;60892.56;4737217;29;19919;-94
2023/07/26 18:36:49;;;;;;;;;;;;;;;-145.06;100.00;60892.56;4728406;29;19919;-94
